sensor_id;sensor_type;location;lat;lon;timestamp;P1;durP1;ratioP1;P2;durP2;ratioP2
20348;SDS011;10332;50.208;18.988;2022-12-04T00:01:22;69.77;;;34.47;;
20348;SDS011;10332;50.208;18.988;2022-12-04T00:03:52;80.88;;;35.58;;
20348;SDS011;10332;50.208;18.988;2022-12-04T00:06:24;76.33;;;36.50;;
20348;SDS011;10332;50.208;18.988;2022-12-04T00:08:52;77.17;;;37.40;;
20348;SDS011;10332;50.208;18.988;2022-12-04T00:11:23;77.03;;;36.27;;
20348;SDS011;10332;50.208;18.988;2022-12-04T00:13:53;75.20;;;34.83;;
20348;SDS011;10332;50.208;18.988;2022-12-04T00:16:28;70.60;;;35.53;;
20348;SDS011;10332;50.208;18.988;2022-12-04T00:18:56;73.93;;;36.15;;
20348;SDS011;10332;50.208;18.988;2022-12-04T00:21:24;72.03;;;34.70;;
20348;SDS011;10332;50.208;18.988;2022-12-04T00:23:52;68.97;;;33.80;;
20348;SDS011;10332;50.208;18.988;2022-12-04T00:26:21;75.97;;;36.17;;
20348;SDS011;10332;50.208;18.988;2022-12-04T00:28:53;78.77;;;36.77;;
20348;SDS011;10332;50.208;18.988;2022-12-04T00:31:23;67.57;;;33.15;;
20348;SDS011;10332;50.208;18.988;2022-12-04T00:33:53;63.92;;;31.05;;
20348;SDS011;10332;50.208;18.988;2022-12-04T00:36:21;75.82;;;35.83;;
20348;SDS011;10332;50.208;18.988;2022-12-04T00:38:52;74.55;;;35.22;;
20348;SDS011;10332;50.208;18.988;2022-12-04T00:41:23;74.72;;;36.92;;
20348;SDS011;10332;50.208;18.988;2022-12-04T00:43:53;67.53;;;33.83;;
20348;SDS011;10332;50.208;18.988;2022-12-04T00:46:21;74.38;;;37.03;;
20348;SDS011;10332;50.208;18.988;2022-12-04T00:48:49;69.88;;;35.35;;
20348;SDS011;10332;50.208;18.988;2022-12-04T00:51:19;78.38;;;36.38;;
20348;SDS011;10332;50.208;18.988;2022-12-04T00:53:51;79.20;;;38.75;;
20348;SDS011;10332;50.208;18.988;2022-12-04T00:56:20;73.63;;;37.15;;
20348;SDS011;10332;50.208;18.988;2022-12-04T00:58:52;75.83;;;38.37;;
20348;SDS011;10332;50.208;18.988;2022-12-04T01:01:22;73.57;;;36.08;;
20348;SDS011;10332;50.208;18.988;2022-12-04T01:03:51;77.50;;;38.17;;
20348;SDS011;10332;50.208;18.988;2022-12-04T01:06:24;72.70;;;37.08;;
20348;SDS011;10332;50.208;18.988;2022-12-04T01:08:55;71.90;;;36.95;;
20348;SDS011;10332;50.208;18.988;2022-12-04T01:11:25;73.80;;;36.57;;
20348;SDS011;10332;50.208;18.988;2022-12-04T01:13:54;71.38;;;35.95;;
20348;SDS011;10332;50.208;18.988;2022-12-04T01:16:28;77.05;;;37.78;;
20348;SDS011;10332;50.208;18.988;2022-12-04T01:19:02;76.80;;;38.27;;
20348;SDS011;10332;50.208;18.988;2022-12-04T01:21:36;82.00;;;37.53;;
20348;SDS011;10332;50.208;18.988;2022-12-04T01:24:04;83.78;;;40.97;;
20348;SDS011;10332;50.208;18.988;2022-12-04T01:26:32;84.70;;;40.58;;
20348;SDS011;10332;50.208;18.988;2022-12-04T01:29:00;83.82;;;40.33;;
20348;SDS011;10332;50.208;18.988;2022-12-04T01:31:28;81.93;;;39.77;;
20348;SDS011;10332;50.208;18.988;2022-12-04T01:33:55;73.07;;;38.17;;
20348;SDS011;10332;50.208;18.988;2022-12-04T01:36:24;77.50;;;40.57;;
20348;SDS011;10332;50.208;18.988;2022-12-04T01:38:54;74.20;;;37.58;;
20348;SDS011;10332;50.208;18.988;2022-12-04T01:41:23;73.43;;;35.40;;
20348;SDS011;10332;50.208;18.988;2022-12-04T01:46:49;75.75;;;36.20;;
20348;SDS011;10332;50.208;18.988;2022-12-04T01:49:44;70.37;;;35.63;;
20348;SDS011;10332;50.208;18.988;2022-12-04T01:52:18;67.47;;;34.27;;
20348;SDS011;10332;50.208;18.988;2022-12-04T01:54:50;64.82;;;32.65;;
20348;SDS011;10332;50.208;18.988;2022-12-04T01:57:27;67.30;;;35.37;;
20348;SDS011;10332;50.208;18.988;2022-12-04T01:59:59;65.57;;;33.17;;
20348;SDS011;10332;50.208;18.988;2022-12-04T02:02:35;64.73;;;32.00;;
20348;SDS011;10332;50.208;18.988;2022-12-04T02:05:08;66.47;;;33.80;;
20348;SDS011;10332;50.208;18.988;2022-12-04T02:07:40;61.08;;;31.17;;
20348;SDS011;10332;50.208;18.988;2022-12-04T02:10:11;62.03;;;31.77;;
20348;SDS011;10332;50.208;18.988;2022-12-04T02:12:47;62.67;;;31.83;;
20348;SDS011;10332;50.208;18.988;2022-12-04T02:16:12;57.20;;;29.67;;
20348;SDS011;10332;50.208;18.988;2022-12-04T02:19:49;54.67;;;28.13;;
20348;SDS011;10332;50.208;18.988;2022-12-04T02:28:21;53.72;;;27.85;;
20348;SDS011;10332;50.208;18.988;2022-12-04T02:31:19;58.37;;;28.37;;
20348;SDS011;10332;50.208;18.988;2022-12-04T02:33:58;47.70;;;26.33;;
20348;SDS011;10332;50.208;18.988;2022-12-04T02:36:34;55.17;;;28.95;;
20348;SDS011;10332;50.208;18.988;2022-12-04T02:39:20;53.22;;;28.25;;
20348;SDS011;10332;50.208;18.988;2022-12-04T02:42:09;49.08;;;25.70;;
20348;SDS011;10332;50.208;18.988;2022-12-04T02:44:45;52.97;;;27.63;;
20348;SDS011;10332;50.208;18.988;2022-12-04T02:47:27;51.63;;;25.77;;
20348;SDS011;10332;50.208;18.988;2022-12-04T02:49:58;53.38;;;27.45;;
20348;SDS011;10332;50.208;18.988;2022-12-04T02:52:33;51.22;;;25.85;;
20348;SDS011;10332;50.208;18.988;2022-12-04T02:55:12;51.43;;;26.03;;
20348;SDS011;10332;50.208;18.988;2022-12-04T02:57:55;49.95;;;25.60;;
20348;SDS011;10332;50.208;18.988;2022-12-04T03:00:30;55.05;;;27.52;;
20348;SDS011;10332;50.208;18.988;2022-12-04T03:03:06;53.07;;;26.30;;
20348;SDS011;10332;50.208;18.988;2022-12-04T03:05:57;51.85;;;26.70;;
20348;SDS011;10332;50.208;18.988;2022-12-04T03:08:39;56.00;;;28.30;;
20348;SDS011;10332;50.208;18.988;2022-12-04T03:11:16;53.33;;;27.65;;
20348;SDS011;10332;50.208;18.988;2022-12-04T03:13:49;48.40;;;25.88;;
20348;SDS011;10332;50.208;18.988;2022-12-04T03:16:29;55.15;;;28.83;;
20348;SDS011;10332;50.208;18.988;2022-12-04T03:19:14;53.17;;;25.83;;
20348;SDS011;10332;50.208;18.988;2022-12-04T03:21:59;49.35;;;25.92;;
20348;SDS011;10332;50.208;18.988;2022-12-04T03:24:38;46.17;;;24.67;;
20348;SDS011;10332;50.208;18.988;2022-12-04T03:27:12;55.47;;;26.67;;
20348;SDS011;10332;50.208;18.988;2022-12-04T03:32:33;47.05;;;25.67;;
20348;SDS011;10332;50.208;18.988;2022-12-04T03:35:16;52.30;;;25.38;;
20348;SDS011;10332;50.208;18.988;2022-12-04T03:38:10;49.33;;;24.90;;
20348;SDS011;10332;50.208;18.988;2022-12-04T03:41:00;50.05;;;25.30;;
20348;SDS011;10332;50.208;18.988;2022-12-04T03:43:59;46.13;;;24.00;;
20348;SDS011;10332;50.208;18.988;2022-12-04T03:51:51;48.33;;;24.50;;
20348;SDS011;10332;50.208;18.988;2022-12-04T03:58:08;47.92;;;23.55;;
20348;SDS011;10332;50.208;18.988;2022-12-04T04:00:43;52.17;;;25.73;;
20348;SDS011;10332;50.208;18.988;2022-12-04T04:03:17;48.10;;;24.08;;
20348;SDS011;10332;50.208;18.988;2022-12-04T04:05:52;46.70;;;23.65;;
20348;SDS011;10332;50.208;18.988;2022-12-04T04:08:28;49.80;;;24.40;;
20348;SDS011;10332;50.208;18.988;2022-12-04T04:13:47;44.75;;;22.52;;
20348;SDS011;10332;50.208;18.988;2022-12-04T04:16:39;47.95;;;23.55;;
20348;SDS011;10332;50.208;18.988;2022-12-04T04:19:33;44.28;;;22.63;;
20348;SDS011;10332;50.208;18.988;2022-12-04T04:22:23;45.27;;;22.47;;
20348;SDS011;10332;50.208;18.988;2022-12-04T04:25:12;49.28;;;24.25;;
20348;SDS011;10332;50.208;18.988;2022-12-04T04:27:56;44.67;;;22.43;;
20348;SDS011;10332;50.208;18.988;2022-12-04T04:30:24;49.28;;;22.63;;
20348;SDS011;10332;50.208;18.988;2022-12-04T04:33:12;46.38;;;22.92;;
20348;SDS011;10332;50.208;18.988;2022-12-04T04:35:48;48.70;;;24.92;;
20348;SDS011;10332;50.208;18.988;2022-12-04T04:38:33;50.90;;;24.48;;
20348;SDS011;10332;50.208;18.988;2022-12-04T04:44:20;52.13;;;25.48;;
20348;SDS011;10332;50.208;18.988;2022-12-04T04:47:13;48.20;;;24.45;;
20348;SDS011;10332;50.208;18.988;2022-12-04T04:49:50;49.75;;;25.23;;
20348;SDS011;10332;50.208;18.988;2022-12-04T04:52:23;50.42;;;25.02;;
20348;SDS011;10332;50.208;18.988;2022-12-04T04:54:51;52.53;;;25.75;;
20348;SDS011;10332;50.208;18.988;2022-12-04T04:57:26;51.88;;;26.35;;
20348;SDS011;10332;50.208;18.988;2022-12-04T04:59:59;55.33;;;26.83;;
20348;SDS011;10332;50.208;18.988;2022-12-04T05:02:37;58.03;;;27.35;;
20348;SDS011;10332;50.208;18.988;2022-12-04T05:05:05;60.40;;;28.40;;
20348;SDS011;10332;50.208;18.988;2022-12-04T05:07:33;48.75;;;25.25;;
20348;SDS011;10332;50.208;18.988;2022-12-04T05:10:00;54.00;;;27.08;;
20348;SDS011;10332;50.208;18.988;2022-12-04T05:12:28;56.70;;;26.73;;
20348;SDS011;10332;50.208;18.988;2022-12-04T05:14:55;49.90;;;24.48;;
20348;SDS011;10332;50.208;18.988;2022-12-04T05:17:23;51.83;;;24.27;;
20348;SDS011;10332;50.208;18.988;2022-12-04T05:19:50;49.25;;;24.88;;
20348;SDS011;10332;50.208;18.988;2022-12-04T05:22:28;49.30;;;24.33;;
20348;SDS011;10332;50.208;18.988;2022-12-04T05:24:57;53.60;;;25.83;;
20348;SDS011;10332;50.208;18.988;2022-12-04T05:27:26;50.55;;;22.73;;
20348;SDS011;10332;50.208;18.988;2022-12-04T05:29:56;56.75;;;25.25;;
20348;SDS011;10332;50.208;18.988;2022-12-04T05:32:25;53.00;;;22.85;;
20348;SDS011;10332;50.208;18.988;2022-12-04T05:34:55;58.97;;;24.15;;
20348;SDS011;10332;50.208;18.988;2022-12-04T05:37:23;51.35;;;24.58;;
20348;SDS011;10332;50.208;18.988;2022-12-04T05:39:51;48.05;;;21.73;;
20348;SDS011;10332;50.208;18.988;2022-12-04T05:42:20;68.55;;;23.48;;
20348;SDS011;10332;50.208;18.988;2022-12-04T05:44:48;45.33;;;21.43;;
20348;SDS011;10332;50.208;18.988;2022-12-04T05:47:16;48.08;;;23.35;;
20348;SDS011;10332;50.208;18.988;2022-12-04T05:49:43;48.22;;;23.60;;
20348;SDS011;10332;50.208;18.988;2022-12-04T05:52:11;56.17;;;22.67;;
20348;SDS011;10332;50.208;18.988;2022-12-04T05:54:38;44.70;;;21.15;;
20348;SDS011;10332;50.208;18.988;2022-12-04T05:57:06;49.35;;;21.42;;
20348;SDS011;10332;50.208;18.988;2022-12-04T05:59:34;60.80;;;21.33;;
20348;SDS011;10332;50.208;18.988;2022-12-04T06:02:02;43.83;;;21.37;;
20348;SDS011;10332;50.208;18.988;2022-12-04T06:04:29;44.92;;;21.90;;
20348;SDS011;10332;50.208;18.988;2022-12-04T06:06:57;65.05;;;20.67;;
20348;SDS011;10332;50.208;18.988;2022-12-04T06:09:24;45.20;;;19.45;;
20348;SDS011;10332;50.208;18.988;2022-12-04T06:11:55;48.45;;;19.42;;
20348;SDS011;10332;50.208;18.988;2022-12-04T06:14:23;54.40;;;20.75;;
20348;SDS011;10332;50.208;18.988;2022-12-04T06:16:51;40.22;;;20.42;;
20348;SDS011;10332;50.208;18.988;2022-12-04T06:19:19;45.03;;;20.30;;
20348;SDS011;10332;50.208;18.988;2022-12-04T06:21:50;41.20;;;19.93;;
20348;SDS011;10332;50.208;18.988;2022-12-04T06:24:19;42.97;;;19.07;;
20348;SDS011;10332;50.208;18.988;2022-12-04T06:26:54;43.58;;;20.35;;
20348;SDS011;10332;50.208;18.988;2022-12-04T06:29:45;40.72;;;19.60;;
20348;SDS011;10332;50.208;18.988;2022-12-04T06:32:13;46.38;;;20.25;;
20348;SDS011;10332;50.208;18.988;2022-12-04T06:34:50;38.90;;;18.00;;
20348;SDS011;10332;50.208;18.988;2022-12-04T06:37:20;62.67;;;20.95;;
20348;SDS011;10332;50.208;18.988;2022-12-04T06:39:50;41.38;;;20.30;;
20348;SDS011;10332;50.208;18.988;2022-12-04T06:42:17;43.83;;;20.30;;
20348;SDS011;10332;50.208;18.988;2022-12-04T06:44:45;40.50;;;19.17;;
20348;SDS011;10332;50.208;18.988;2022-12-04T06:47:12;52.27;;;19.80;;
20348;SDS011;10332;50.208;18.988;2022-12-04T06:49:39;43.37;;;18.93;;
20348;SDS011;10332;50.208;18.988;2022-12-04T06:52:07;40.57;;;20.70;;
20348;SDS011;10332;50.208;18.988;2022-12-04T06:54:34;40.90;;;18.88;;
20348;SDS011;10332;50.208;18.988;2022-12-04T06:57:02;52.15;;;22.33;;
20348;SDS011;10332;50.208;18.988;2022-12-04T06:59:29;53.83;;;21.30;;
20348;SDS011;10332;50.208;18.988;2022-12-04T07:01:56;58.80;;;22.67;;
20348;SDS011;10332;50.208;18.988;2022-12-04T07:04:24;48.70;;;20.38;;
20348;SDS011;10332;50.208;18.988;2022-12-04T07:06:51;43.93;;;19.73;;
20348;SDS011;10332;50.208;18.988;2022-12-04T07:09:18;55.25;;;23.00;;
20348;SDS011;10332;50.208;18.988;2022-12-04T07:11:46;47.67;;;22.05;;
20348;SDS011;10332;50.208;18.988;2022-12-04T07:14:13;44.13;;;20.65;;
20348;SDS011;10332;50.208;18.988;2022-12-04T07:16:41;38.13;;;19.83;;
20348;SDS011;10332;50.208;18.988;2022-12-04T07:19:09;45.55;;;21.50;;
20348;SDS011;10332;50.208;18.988;2022-12-04T07:21:40;50.67;;;20.50;;
20348;SDS011;10332;50.208;18.988;2022-12-04T07:24:10;42.88;;;20.63;;
20348;SDS011;10332;50.208;18.988;2022-12-04T07:26:42;61.88;;;20.63;;
20348;SDS011;10332;50.208;18.988;2022-12-04T07:29:11;50.65;;;23.50;;
20348;SDS011;10332;50.208;18.988;2022-12-04T07:31:39;49.85;;;22.52;;
20348;SDS011;10332;50.208;18.988;2022-12-04T07:34:06;52.13;;;26.10;;
20348;SDS011;10332;50.208;18.988;2022-12-04T07:36:34;53.30;;;25.35;;
20348;SDS011;10332;50.208;18.988;2022-12-04T07:39:01;59.85;;;31.75;;
20348;SDS011;10332;50.208;18.988;2022-12-04T07:41:28;48.00;;;23.60;;
20348;SDS011;10332;50.208;18.988;2022-12-04T07:43:56;53.05;;;19.92;;
20348;SDS011;10332;50.208;18.988;2022-12-04T07:46:24;39.85;;;19.33;;
20348;SDS011;10332;50.208;18.988;2022-12-04T07:48:54;40.97;;;19.98;;
20348;SDS011;10332;50.208;18.988;2022-12-04T07:51:25;39.58;;;20.33;;
20348;SDS011;10332;50.208;18.988;2022-12-04T07:53:54;40.28;;;20.58;;
20348;SDS011;10332;50.208;18.988;2022-12-04T07:56:29;35.72;;;19.95;;
20348;SDS011;10332;50.208;18.988;2022-12-04T07:58:57;48.38;;;23.52;;
20348;SDS011;10332;50.208;18.988;2022-12-04T08:01:26;41.97;;;22.25;;
20348;SDS011;10332;50.208;18.988;2022-12-04T08:03:54;41.78;;;21.55;;
20348;SDS011;10332;50.208;18.988;2022-12-04T08:06:24;45.00;;;21.42;;
20348;SDS011;10332;50.208;18.988;2022-12-04T08:08:54;43.25;;;20.55;;
20348;SDS011;10332;50.208;18.988;2022-12-04T08:11:23;39.92;;;21.00;;
20348;SDS011;10332;50.208;18.988;2022-12-04T08:13:56;43.15;;;20.98;;
20348;SDS011;10332;50.208;18.988;2022-12-04T08:16:30;38.42;;;19.13;;
20348;SDS011;10332;50.208;18.988;2022-12-04T08:18:59;39.20;;;20.90;;
20348;SDS011;10332;50.208;18.988;2022-12-04T08:21:27;40.10;;;20.38;;
20348;SDS011;10332;50.208;18.988;2022-12-04T08:23:57;35.17;;;19.10;;
20348;SDS011;10332;50.208;18.988;2022-12-04T08:26:27;36.72;;;20.52;;
20348;SDS011;10332;50.208;18.988;2022-12-04T08:28:56;43.72;;;21.98;;
20348;SDS011;10332;50.208;18.988;2022-12-04T08:31:26;39.05;;;19.58;;
20348;SDS011;10332;50.208;18.988;2022-12-04T08:33:56;37.08;;;19.58;;
20348;SDS011;10332;50.208;18.988;2022-12-04T08:36:26;40.55;;;19.58;;
20348;SDS011;10332;50.208;18.988;2022-12-04T08:38:54;38.08;;;19.50;;
20348;SDS011;10332;50.208;18.988;2022-12-04T08:41:23;39.85;;;21.23;;
20348;SDS011;10332;50.208;18.988;2022-12-04T08:43:52;36.33;;;18.90;;
20348;SDS011;10332;50.208;18.988;2022-12-04T08:46:22;49.65;;;21.15;;
20348;SDS011;10332;50.208;18.988;2022-12-04T08:48:52;42.85;;;21.00;;
20348;SDS011;10332;50.208;18.988;2022-12-04T08:51:22;42.95;;;23.15;;
20348;SDS011;10332;50.208;18.988;2022-12-04T08:54:00;54.22;;;28.75;;
20348;SDS011;10332;50.208;18.988;2022-12-04T08:56:31;45.28;;;25.50;;
20348;SDS011;10332;50.208;18.988;2022-12-04T08:59:01;45.10;;;25.88;;
20348;SDS011;10332;50.208;18.988;2022-12-04T09:01:30;47.17;;;21.75;;
20348;SDS011;10332;50.208;18.988;2022-12-04T09:03:57;43.05;;;23.02;;
20348;SDS011;10332;50.208;18.988;2022-12-04T09:06:25;42.33;;;22.27;;
20348;SDS011;10332;50.208;18.988;2022-12-04T09:08:53;40.92;;;22.27;;
20348;SDS011;10332;50.208;18.988;2022-12-04T09:11:23;40.03;;;21.67;;
20348;SDS011;10332;50.208;18.988;2022-12-04T09:13:53;37.55;;;20.10;;
20348;SDS011;10332;50.208;18.988;2022-12-04T09:16:22;36.88;;;20.00;;
20348;SDS011;10332;50.208;18.988;2022-12-04T09:18:51;35.70;;;19.17;;
20348;SDS011;10332;50.208;18.988;2022-12-04T09:21:20;39.70;;;21.65;;
20348;SDS011;10332;50.208;18.988;2022-12-04T09:23:49;38.80;;;21.63;;
20348;SDS011;10332;50.208;18.988;2022-12-04T09:26:25;40.00;;;22.88;;
20348;SDS011;10332;50.208;18.988;2022-12-04T09:28:57;39.00;;;23.92;;
20348;SDS011;10332;50.208;18.988;2022-12-04T09:31:29;37.65;;;22.33;;
20348;SDS011;10332;50.208;18.988;2022-12-04T09:33:58;41.17;;;25.42;;
20348;SDS011;10332;50.208;18.988;2022-12-04T09:36:27;43.53;;;23.25;;
20348;SDS011;10332;50.208;18.988;2022-12-04T09:38:56;41.33;;;23.30;;
20348;SDS011;10332;50.208;18.988;2022-12-04T09:44:41;39.88;;;23.08;;
20348;SDS011;10332;50.208;18.988;2022-12-04T09:47:27;38.42;;;21.80;;
20348;SDS011;10332;50.208;18.988;2022-12-04T09:55:35;38.22;;;21.95;;
20348;SDS011;10332;50.208;18.988;2022-12-04T10:01:25;39.95;;;23.20;;
20348;SDS011;10332;50.208;18.988;2022-12-04T10:04:00;39.50;;;23.17;;
20348;SDS011;10332;50.208;18.988;2022-12-04T10:12:30;43.10;;;23.88;;
20348;SDS011;10332;50.208;18.988;2022-12-04T10:18:32;39.03;;;23.50;;
20348;SDS011;10332;50.208;18.988;2022-12-04T10:21:20;34.92;;;21.42;;
20348;SDS011;10332;50.208;18.988;2022-12-04T10:26:53;39.08;;;22.85;;
20348;SDS011;10332;50.208;18.988;2022-12-04T10:29:29;39.03;;;21.63;;
20348;SDS011;10332;50.208;18.988;2022-12-04T10:34:53;37.10;;;21.65;;
20348;SDS011;10332;50.208;18.988;2022-12-04T10:37:28;34.70;;;20.50;;
20348;SDS011;10332;50.208;18.988;2022-12-04T10:42:54;34.05;;;20.02;;
20348;SDS011;10332;50.208;18.988;2022-12-04T10:45:49;35.75;;;21.15;;
20348;SDS011;10332;50.208;18.988;2022-12-04T10:48:19;35.20;;;20.42;;
20348;SDS011;10332;50.208;18.988;2022-12-04T10:50:53;36.97;;;20.83;;
20348;SDS011;10332;50.208;18.988;2022-12-04T10:53:22;33.35;;;20.38;;
20348;SDS011;10332;50.208;18.988;2022-12-04T10:56:07;36.13;;;21.33;;
20348;SDS011;10332;50.208;18.988;2022-12-04T11:01:31;37.35;;;23.70;;
20348;SDS011;10332;50.208;18.988;2022-12-04T11:04:22;36.30;;;21.77;;
20348;SDS011;10332;50.208;18.988;2022-12-04T11:07:00;40.70;;;24.10;;
20348;SDS011;10332;50.208;18.988;2022-12-04T11:09:56;35.92;;;21.58;;
20348;SDS011;10332;50.208;18.988;2022-12-04T11:12:32;38.80;;;22.67;;
20348;SDS011;10332;50.208;18.988;2022-12-04T11:15:17;39.83;;;21.92;;
20348;SDS011;10332;50.208;18.988;2022-12-04T11:17:45;37.90;;;24.00;;
20348;SDS011;10332;50.208;18.988;2022-12-04T11:20:15;36.65;;;23.17;;
20348;SDS011;10332;50.208;18.988;2022-12-04T11:22:50;34.05;;;20.90;;
20348;SDS011;10332;50.208;18.988;2022-12-04T11:25:25;31.65;;;19.13;;
20348;SDS011;10332;50.208;18.988;2022-12-04T11:28:00;35.55;;;22.38;;
20348;SDS011;10332;50.208;18.988;2022-12-04T11:30:31;34.97;;;20.75;;
20348;SDS011;10332;50.208;18.988;2022-12-04T11:33:03;38.03;;;24.55;;
20348;SDS011;10332;50.208;18.988;2022-12-04T11:35:49;33.55;;;21.17;;
20348;SDS011;10332;50.208;18.988;2022-12-04T11:38:22;28.13;;;19.23;;
20348;SDS011;10332;50.208;18.988;2022-12-04T11:40:54;27.05;;;18.27;;
20348;SDS011;10332;50.208;18.988;2022-12-04T11:43:25;27.70;;;18.77;;
20348;SDS011;10332;50.208;18.988;2022-12-04T11:46:05;31.58;;;20.90;;
20348;SDS011;10332;50.208;18.988;2022-12-04T11:48:51;31.08;;;21.02;;
20348;SDS011;10332;50.208;18.988;2022-12-04T11:59:59;31.00;;;22.02;;
20348;SDS011;10332;50.208;18.988;2022-12-04T12:11:28;33.15;;;23.35;;
20348;SDS011;10332;50.208;18.988;2022-12-04T12:14:09;34.38;;;24.95;;
20348;SDS011;10332;50.208;18.988;2022-12-04T12:19:48;29.38;;;20.73;;
20348;SDS011;10332;50.208;18.988;2022-12-04T12:22:42;33.08;;;23.85;;
20348;SDS011;10332;50.208;18.988;2022-12-04T12:30:43;25.42;;;18.95;;
20348;SDS011;10332;50.208;18.988;2022-12-04T12:33:33;25.20;;;19.25;;
20348;SDS011;10332;50.208;18.988;2022-12-04T12:36:14;24.85;;;18.63;;
20348;SDS011;10332;50.208;18.988;2022-12-04T12:38:49;26.88;;;19.35;;
20348;SDS011;10332;50.208;18.988;2022-12-04T12:41:42;27.98;;;21.13;;
20348;SDS011;10332;50.208;18.988;2022-12-04T12:44:17;25.83;;;19.83;;
20348;SDS011;10332;50.208;18.988;2022-12-04T12:47:03;24.80;;;19.35;;
20348;SDS011;10332;50.208;18.988;2022-12-04T12:55:35;29.35;;;20.92;;
20348;SDS011;10332;50.208;18.988;2022-12-04T13:00:44;29.45;;;21.90;;
20348;SDS011;10332;50.208;18.988;2022-12-04T13:03:29;28.33;;;21.23;;
20348;SDS011;10332;50.208;18.988;2022-12-04T13:06:36;28.33;;;21.83;;
20348;SDS011;10332;50.208;18.988;2022-12-04T13:09:23;34.92;;;26.13;;
20348;SDS011;10332;50.208;18.988;2022-12-04T13:12:09;31.42;;;23.60;;
20348;SDS011;10332;50.208;18.988;2022-12-04T13:14:41;40.78;;;26.50;;
20348;SDS011;10332;50.208;18.988;2022-12-04T13:20:05;41.53;;;24.48;;
20348;SDS011;10332;50.208;18.988;2022-12-04T13:28:40;38.78;;;24.08;;
20348;SDS011;10332;50.208;18.988;2022-12-04T13:40:34;38.35;;;24.83;;
20348;SDS011;10332;50.208;18.988;2022-12-04T13:43:14;39.33;;;24.48;;
20348;SDS011;10332;50.208;18.988;2022-12-04T13:45:48;36.38;;;22.33;;
20348;SDS011;10332;50.208;18.988;2022-12-04T13:48:27;35.28;;;23.35;;
20348;SDS011;10332;50.208;18.988;2022-12-04T13:53:40;36.97;;;24.83;;
20348;SDS011;10332;50.208;18.988;2022-12-04T13:56:24;40.72;;;24.35;;
20348;SDS011;10332;50.208;18.988;2022-12-04T13:59:00;38.22;;;24.50;;
20348;SDS011;10332;50.208;18.988;2022-12-04T14:01:45;45.60;;;25.88;;
20348;SDS011;10332;50.208;18.988;2022-12-04T14:04:22;44.33;;;26.70;;
20348;SDS011;10332;50.208;18.988;2022-12-04T14:06:58;40.15;;;25.23;;
20348;SDS011;10332;50.208;18.988;2022-12-04T14:09:33;38.22;;;24.63;;
20348;SDS011;10332;50.208;18.988;2022-12-04T14:12:14;41.08;;;25.38;;
20348;SDS011;10332;50.208;18.988;2022-12-04T14:14:50;43.50;;;26.25;;
20348;SDS011;10332;50.208;18.988;2022-12-04T14:17:31;44.78;;;28.35;;
20348;SDS011;10332;50.208;18.988;2022-12-04T14:20:04;48.72;;;31.15;;
20348;SDS011;10332;50.208;18.988;2022-12-04T14:22:53;43.60;;;27.45;;
20348;SDS011;10332;50.208;18.988;2022-12-04T14:25:23;45.90;;;27.50;;
20348;SDS011;10332;50.208;18.988;2022-12-04T14:28:11;48.90;;;27.35;;
20348;SDS011;10332;50.208;18.988;2022-12-04T14:33:57;50.60;;;30.73;;
20348;SDS011;10332;50.208;18.988;2022-12-04T14:36:40;49.72;;;29.55;;
20348;SDS011;10332;50.208;18.988;2022-12-04T14:39:25;53.72;;;29.52;;
20348;SDS011;10332;50.208;18.988;2022-12-04T14:42:01;48.10;;;27.02;;
20348;SDS011;10332;50.208;18.988;2022-12-04T14:44:31;44.80;;;28.63;;
20348;SDS011;10332;50.208;18.988;2022-12-04T14:47:04;53.38;;;31.27;;
20348;SDS011;10332;50.208;18.988;2022-12-04T14:55:44;50.17;;;28.70;;
20348;SDS011;10332;50.208;18.988;2022-12-04T14:58:36;50.95;;;30.13;;
20348;SDS011;10332;50.208;18.988;2022-12-04T15:01:05;49.15;;;28.38;;
20348;SDS011;10332;50.208;18.988;2022-12-04T15:06:56;52.67;;;28.50;;
20348;SDS011;10332;50.208;18.988;2022-12-04T15:09:26;47.22;;;27.95;;
20348;SDS011;10332;50.208;18.988;2022-12-04T15:15:23;47.00;;;26.80;;
20348;SDS011;10332;50.208;18.988;2022-12-04T15:18:13;47.30;;;26.30;;
20348;SDS011;10332;50.208;18.988;2022-12-04T15:23:25;51.70;;;28.05;;
20348;SDS011;10332;50.208;18.988;2022-12-04T15:26:04;49.22;;;28.05;;
20348;SDS011;10332;50.208;18.988;2022-12-04T15:31:42;51.95;;;27.58;;
20348;SDS011;10332;50.208;18.988;2022-12-04T15:34:15;50.00;;;28.45;;
20348;SDS011;10332;50.208;18.988;2022-12-04T15:36:49;53.58;;;29.75;;
20348;SDS011;10332;50.208;18.988;2022-12-04T15:39:33;50.00;;;29.00;;
20348;SDS011;10332;50.208;18.988;2022-12-04T15:42:04;53.80;;;31.10;;
20348;SDS011;10332;50.208;18.988;2022-12-04T15:44:48;52.42;;;30.38;;
20348;SDS011;10332;50.208;18.988;2022-12-04T15:47:32;68.55;;;35.25;;
20348;SDS011;10332;50.208;18.988;2022-12-04T15:50:19;61.03;;;32.38;;
20348;SDS011;10332;50.208;18.988;2022-12-04T15:53:30;56.50;;;30.95;;
20348;SDS011;10332;50.208;18.988;2022-12-04T15:55:55;51.13;;;29.27;;
20348;SDS011;10332;50.208;18.988;2022-12-04T15:58:30;56.47;;;32.30;;
20348;SDS011;10332;50.208;18.988;2022-12-04T16:08:47;54.95;;;30.98;;
20348;SDS011;10332;50.208;18.988;2022-12-04T16:13:44;60.75;;;33.63;;
20348;SDS011;10332;50.208;18.988;2022-12-04T16:16:38;64.40;;;36.42;;
20348;SDS011;10332;50.208;18.988;2022-12-04T16:19:14;50.30;;;29.73;;
20348;SDS011;10332;50.208;18.988;2022-12-04T16:22:00;54.17;;;28.90;;
20348;SDS011;10332;50.208;18.988;2022-12-04T16:24:36;53.80;;;29.73;;
20348;SDS011;10332;50.208;18.988;2022-12-04T16:27:12;53.38;;;30.42;;
20348;SDS011;10332;50.208;18.988;2022-12-04T16:29:43;58.15;;;31.10;;
20348;SDS011;10332;50.208;18.988;2022-12-04T16:32:11;62.22;;;33.35;;
20348;SDS011;10332;50.208;18.988;2022-12-04T16:34:42;52.63;;;30.55;;
20348;SDS011;10332;50.208;18.988;2022-12-04T16:37:10;60.53;;;34.63;;
20348;SDS011;10332;50.208;18.988;2022-12-04T16:39:39;63.90;;;34.55;;
20348;SDS011;10332;50.208;18.988;2022-12-04T16:42:17;64.95;;;34.70;;
20348;SDS011;10332;50.208;18.988;2022-12-04T16:44:54;67.47;;;36.42;;
20348;SDS011;10332;50.208;18.988;2022-12-04T16:47:22;65.45;;;35.60;;
20348;SDS011;10332;50.208;18.988;2022-12-04T16:49:50;56.42;;;32.42;;
20348;SDS011;10332;50.208;18.988;2022-12-04T16:52:18;56.38;;;31.60;;
20348;SDS011;10332;50.208;18.988;2022-12-04T16:54:47;58.95;;;33.42;;
20348;SDS011;10332;50.208;18.988;2022-12-04T16:57:14;60.88;;;34.75;;
20348;SDS011;10332;50.208;18.988;2022-12-04T16:59:42;60.63;;;33.60;;
20348;SDS011;10332;50.208;18.988;2022-12-04T17:02:16;61.58;;;33.47;;
20348;SDS011;10332;50.208;18.988;2022-12-04T17:04:51;59.30;;;32.50;;
20348;SDS011;10332;50.208;18.988;2022-12-04T17:07:23;60.75;;;32.83;;
20348;SDS011;10332;50.208;18.988;2022-12-04T17:09:51;60.45;;;33.63;;
20348;SDS011;10332;50.208;18.988;2022-12-04T17:12:18;63.33;;;33.50;;
20348;SDS011;10332;50.208;18.988;2022-12-04T17:14:46;74.20;;;37.83;;
20348;SDS011;10332;50.208;18.988;2022-12-04T17:17:13;64.97;;;35.85;;